Cavok V — PB7130 — position and weather

sailwx.info

Track history (hours):
 
Tides and Currents Weather Stations Pressure Air Temp Water Temp Dewpoint Dewpoint Depression Visibility Wind Speed Wind Dir Waves Ship Positions

Cavok V

Last reported at 2018-Feb-20 08:55 UTC. Time now 2018-Apr-24 10:25 UTC.
Position N 51°49' E 005°19'.
Warning: this ship's position is months out of date.

Type: Sailing vessel. MMSI: 244690846.

Date/timePositionNaut miles runAvg speedWind from/ knotsBaromVisibWave heightAir tempDewpointWater temp
2018-Feb-20 08:55N 51°49' E 005°19'2 5.1
2018-Feb-20 08:30N 51°49' E 005°16'4 5.4
2018-Feb-20 07:45N 51°49' E 005°09'2 5.8
2018-Feb-20 07:25N 51°49' E 005°06'3 6.1
2018-Feb-20 06:55N 51°49' E 005°01'3 7.2
2018-Feb-20 06:30N 51°50' E 004°57'4 7.8
2018-Feb-20 06:00N 51°49' E 004°50'4 8.1
2018-Feb-20 05:30N 51°49' E 004°44'3 6.2
2018-Feb-20 05:00N 51°51' E 004°40'4 7.9
2018-Feb-20 04:30N 51°54' E 004°35'3 6.7
2018-Feb-20 04:00N 51°55' E 004°30'3 5.3
2018-Feb-20 03:31N 51°53' E 004°26'0 0.8
2018-Feb-20 03:00N 51°53' E 004°27'0 0.0
2018-Feb-20 02:29N 51°53' E 004°27'0 0.0
2018-Feb-20 01:58N 51°53' E 004°27'0 0.0
2018-Feb-20 01:26N 51°53' E 004°27'0 0.0
2018-Feb-20 00:54N 51°53' E 004°27'0 0.0
2018-Feb-20 00:23N 51°53' E 004°27'0 0.0
2018-Feb-19 23:57N 51°53' E 004°27'0 0.0
2018-Feb-19 23:26N 51°53' E 004°27'1 2.6
2018-Feb-19 23:00N 51°54' E 004°26'2 4.9
2018-Feb-19 22:30N 51°54' E 004°22'0 0.0
2018-Feb-19 22:00N 51°54' E 004°22'0 0.2
2018-Feb-19 21:30N 51°54' E 004°22'0 0.1
2018-Feb-19 21:00N 51°54' E 004°22'0 0.0
2018-Feb-19 20:30N 51°54' E 004°22'0 0.0
2018-Feb-19 20:00N 51°54' E 004°22'0 0.0
2018-Feb-19 19:30N 51°54' E 004°22'0 0.1
2018-Feb-19 19:00N 51°54' E 004°22'0 0.0
2018-Feb-19 18:30N 51°54' E 004°22'0 0.0
2018-Feb-19 18:00N 51°54' E 004°22'0 0.1
2018-Feb-19 17:30N 51°54' E 004°22'0 0.0
2018-Feb-19 17:00N 51°54' E 004°22'0 0.0
2018-Feb-19 16:30N 51°54' E 004°22'0 0.4
2018-Feb-19 16:00N 51°54' E 004°22'0 0.0
2018-Feb-19 15:30N 51°54' E 004°22'0 0.0
2018-Feb-19 15:00N 51°54' E 004°22'0 0.0
2018-Feb-19 14:30N 51°54' E 004°22'1 2.8
2018-Feb-19 14:00N 51°54' E 004°24'3 6.3
2018-Feb-19 13:30N 51°54' E 004°29'0 0.2
2018-Feb-19 13:00N 51°54' E 004°29'1 2.8
2018-Feb-19 12:30N 51°54' E 004°31'4 8.7
2018-Feb-19 12:00N 51°53' E 004°38'4 7.9
2018-Feb-19 11:30N 51°49' E 004°39'4 8.6
2018-Feb-19 11:00N 51°44' E 004°38'3 6.0
2018-Feb-19 10:30N 51°43' E 004°42'4 8.2
2018-Feb-19 10:00N 51°43' E 004°49'4 8.4
2018-Feb-19 09:30N 51°43' E 004°56'9 8.2
2018-Feb-19 08:21N 51°45' E 005°11'5 8.1
2018-Feb-19 07:46N 51°44' E 005°18'1 2.6
2018-Feb-19 07:23N 51°44' E 005°20'1 4.0
2018-Feb-19 07:00N 51°43' E 005°21'1 2.3
2018-Feb-19 06:30N 51°42' E 005°22'3 5.7
2018-Feb-19 06:00N 51°40' E 005°24'2 3.2
2018-Feb-19 05:30N 51°39' E 005°27'0 0.3
2018-Feb-19 05:00N 51°39' E 005°27'0 0.0
2018-Feb-19 04:30N 51°39' E 005°27'0 0.0
2018-Feb-19 04:00N 51°39' E 005°27'0 0.0
2018-Feb-19 03:31N 51°39' E 005°27'0 0.0
2018-Feb-19 03:01N 51°39' E 005°27'0 0.0
2018-Feb-19 02:31N 51°39' E 005°27'0 0.0
2018-Feb-19 02:01N 51°39' E 005°27'0 0.0
2018-Feb-19 01:31N 51°39' E 005°27'0 0.0
2018-Feb-19 01:00N 51°39' E 005°27'0 0.0
2018-Feb-19 00:30N 51°39' E 005°27'0 0.0
2018-Feb-19 00:00N 51°39' E 005°27'0 0.0
2018-Feb-18 23:30N 51°39' E 005°27'0 0.0
2018-Feb-18 23:00N 51°39' E 005°27'0 0.0
2018-Feb-18 22:31N 51°39' E 005°27'0 0.0
2018-Feb-18 22:00N 51°39' E 005°27'0 0.0
2018-Feb-18 21:30N 51°39' E 005°27'0 0.0
2018-Feb-18 21:00N 51°39' E 005°27'0 0.0
2018-Feb-18 20:31N 51°39' E 005°27'0 0.0
2018-Feb-18 20:00N 51°39' E 005°27'0 0.0
2018-Feb-18 19:31N 51°39' E 005°27'0 0.0
2018-Feb-18 19:00N 51°39' E 005°27'0 0.0
2018-Feb-18 18:30N 51°39' E 005°27'0 0.0
2018-Feb-18 18:00N 51°39' E 005°27'0 0.0
2018-Feb-18 17:30N 51°39' E 005°27'0 0.0
2018-Feb-18 17:00N 51°39' E 005°27'0 0.0
2018-Feb-18 16:31N 51°39' E 005°27'0 0.0
2018-Feb-18 16:00N 51°39' E 005°27'0 0.0
2018-Feb-18 15:31N 51°39' E 005°27'0 0.0
2018-Feb-18 15:01N 51°39' E 005°27'0 0.0
2018-Feb-18 14:31N 51°39' E 005°27'0 0.0
2018-Feb-18 14:00N 51°39' E 005°27'0 0.0
2018-Feb-18 13:30N 51°39' E 005°27'0 0.0
2018-Feb-18 13:01N 51°39' E 005°27'0 0.0
2018-Feb-18 12:30N 51°39' E 005°27'0 0.0
2018-Feb-18 12:01N 51°39' E 005°27'0 0.0
2018-Feb-18 11:31N 51°39' E 005°27'0 0.0
2018-Feb-18 11:00N 51°39' E 005°27'0 0.0
2018-Feb-18 10:31N 51°39' E 005°27'0 0.0
2018-Feb-18 10:00N 51°39' E 005°27'0 0.0
2018-Feb-18 09:30N 51°39' E 005°27'0 0.0
2018-Feb-18 09:01N 51°39' E 005°27'0 0.0
2018-Feb-18 08:30N 51°39' E 005°27'0 0.0
2018-Feb-18 08:00N 51°39' E 005°27'0 0.0
2018-Feb-18 07:30N 51°39' E 005°27'0 0.0
2018-Feb-18 07:00N 51°39' E 005°27'0 0.0
2018-Feb-18 06:30N 51°39' E 005°27'0 0.0
2018-Feb-18 06:01N 51°39' E 005°27'0 0.0
2018-Feb-18 05:30N 51°39' E 005°27'0 0.0
2018-Feb-18 05:00N 51°39' E 005°27'0 0.0
2018-Feb-18 04:30N 51°39' E 005°27'0 0.0
2018-Feb-18 04:01N 51°39' E 005°27'0 0.0
2018-Feb-18 03:31N 51°39' E 005°27'0 0.0
2018-Feb-18 03:00N 51°39' E 005°27'0 0.0
2018-Feb-18 02:30N 51°39' E 005°27'0 0.0
2018-Feb-18 02:00N 51°39' E 005°27'0 0.0
2018-Feb-18 01:31N 51°39' E 005°27'0 0.0
2018-Feb-18 01:00N 51°39' E 005°27'0 0.0
2018-Feb-18 00:30N 51°39' E 005°27'0 0.0
2018-Feb-18 00:01N 51°39' E 005°27'0 0.0
2018-Feb-17 23:30N 51°39' E 005°27'0 0.0
2018-Feb-17 23:01N 51°39' E 005°27'0 0.0
2018-Feb-17 22:30N 51°39' E 005°27'0 0.0
2018-Feb-17 22:01N 51°39' E 005°27'0 0.0
2018-Feb-17 21:30N 51°39' E 005°27'0 0.0
2018-Feb-17 21:00N 51°39' E 005°27'0 0.0
2018-Feb-17 20:30N 51°39' E 005°27'0 0.0
2018-Feb-17 20:00N 51°39' E 005°27'0 0.0
2018-Feb-17 19:31N 51°39' E 005°27'0 0.0
2018-Feb-17 19:01N 51°39' E 005°27'0 0.0
2018-Feb-17 18:31N 51°39' E 005°27'0 0.0
2018-Feb-17 18:01N 51°39' E 005°27'0 0.0
2018-Feb-17 17:30N 51°39' E 005°27'0 0.0
2018-Feb-17 17:00N 51°39' E 005°27'0 0.0
2018-Feb-17 16:30N 51°39' E 005°27'0 0.0
2018-Feb-17 16:00N 51°39' E 005°27'0 0.0
2018-Feb-17 15:30N 51°39' E 005°27'0 0.0
2018-Feb-17 15:00N 51°39' E 005°27'0 0.0
2018-Feb-17 14:30N 51°39' E 005°27'0 0.0
2018-Feb-17 14:00N 51°39' E 005°27'0 0.0
2018-Feb-17 13:30N 51°39' E 005°27'0 0.0
2018-Feb-17 13:00N 51°39' E 005°27'0 0.0
2018-Feb-17 12:30N 51°39' E 005°27'0 0.0
2018-Feb-17 12:00N 51°39' E 005°27'0 0.0
2018-Feb-17 11:30N 51°39' E 005°27'0 0.0
2018-Feb-17 11:01N 51°39' E 005°27'0 0.0
2018-Feb-17 10:30N 51°39' E 005°27'0 0.0
2018-Feb-17 10:01N 51°39' E 005°27'0 0.0
2018-Feb-17 09:31N 51°39' E 005°27'0 0.0
2018-Feb-17 09:00N 51°39' E 005°27'0 0.0
2018-Feb-17 08:30N 51°39' E 005°27'0 0.0
2018-Feb-17 08:00N 51°39' E 005°27'0 0.0
2018-Feb-17 07:31N 51°39' E 005°27'0 0.0
2018-Feb-17 07:00N 51°39' E 005°27'0 0.0
2018-Feb-17 06:31N 51°39' E 005°27'0 0.0
2018-Feb-17 06:00N 51°39' E 005°27'0 0.0
2018-Feb-17 05:30N 51°39' E 005°27'0 0.0
2018-Feb-17 05:00N 51°39' E 005°27'0 0.0
2018-Feb-17 04:31N 51°39' E 005°27'0 0.0
2018-Feb-17 04:00N 51°39' E 005°27'0 0.0
2018-Feb-17 03:31N 51°39' E 005°27'0 0.0
2018-Feb-17 03:00N 51°39' E 005°27'0 0.0
2018-Feb-17 02:31N 51°39' E 005°27'0 0.0
2018-Feb-17 02:00N 51°39' E 005°27'0 0.0
2018-Feb-17 01:31N 51°39' E 005°27'0 0.0
2018-Feb-17 01:01N 51°39' E 005°27'0 0.0
2018-Feb-17 00:30N 51°39' E 005°27'0 0.0
2018-Feb-17 00:01N 51°39' E 005°27'0 0.0
2018-Feb-16 23:30N 51°39' E 005°27'0 0.0
2018-Feb-16 23:00N 51°39' E 005°27'0 0.0
2018-Feb-16 22:30N 51°39' E 005°27'0 0.0
2018-Feb-16 22:00N 51°39' E 005°27'0 0.0
2018-Feb-16 21:30N 51°39' E 005°27'0 0.0
2018-Feb-16 21:01N 51°39' E 005°27'0 0.0
2018-Feb-16 20:30N 51°39' E 005°27'3 5.7
2018-Feb-16 19:59N 51°37' E 005°31'1 0.0
2018-Feb-15 18:49N 51°37' E 005°32'0 1.2
2018-Feb-15 18:30N 51°37' E 005°31'0 0.8
2018-Feb-15 18:00N 51°37' E 005°31'2 4.4
2018-Feb-15 17:30N 51°39' E 005°28'1 2.0
2018-Feb-15 17:00N 51°39' E 005°27'2 4.4
2018-Feb-15 16:30N 51°40' E 005°24'5 2.3
2018-Feb-15 14:13N 51°45' E 005°20'1 6.0
2018-Feb-15 14:00N 51°46' E 005°22'2 3.9
2018-Feb-15 13:23N 51°48' E 005°21'0 0.8
2018-Feb-15 12:58N 51°48' E 005°21'24 5.2
2018-Feb-15 08:25N 51°52' E 005°59'3 7.8
2018-Feb-15 08:00N 51°52' E 006°04'18 9.3
2018-Feb-15 06:01N 51°41' E 006°28'011.2
2018-Feb-15 06:00N 51°41' E 006°28'5 9.8
2018-Feb-15 05:30N 51°39' E 006°36'510.1
2018-Feb-15 05:00N 51°34' E 006°36'3 6.7
2018-Feb-15 04:30N 51°32' E 006°41'2 3.3
2018-Feb-15 03:58N 51°31' E 006°43'0 0.0
2018-Feb-15 03:29N 51°31' E 006°43'0 0.0
2018-Feb-15 02:53N 51°31' E 006°43'0 0.0
2018-Feb-15 02:29N 51°31' E 006°43'0 0.0
2018-Feb-15 02:00N 51°31' E 006°43'0 0.0
2018-Feb-15 01:27N 51°31' E 006°43'0 0.0
2018-Feb-15 00:53N 51°31' E 006°43'0 0.0
2018-Feb-15 00:30N 51°31' E 006°43'0 0.0
2018-Feb-15 00:00N 51°31' E 006°43'0 0.0
2018-Feb-14 23:30N 51°31' E 006°43'0 0.0
2018-Feb-14 22:58N 51°31' E 006°43'1 2.7
2018-Feb-14 22:30N 51°30' E 006°43'3 6.9
2018-Feb-14 22:00N 51°27' E 006°43'4 8.4
2018-Feb-14 21:29N 51°22' E 006°41'5 7.5
2018-Feb-14 20:50N 51°18' E 006°43'3 8.3
2018-Feb-14 20:30N 51°15' E 006°45'3 6.3
2018-Feb-14 20:00N 51°12' E 006°44'17 7.9
2018-Feb-14 17:52N 50°58' E 006°60'4 9.8
2018-Feb-14 17:30N 50°55' E 006°58'4 6.4
2018-Feb-14 16:53N 50°51' E 006°60'3 8.2
2018-Feb-14 16:29N 50°48' E 007°02'510.6
2018-Feb-14 15:58N 50°44' E 007°07'1 0.0
2018-Feb-12 13:42N 50°43' E 007°07'1 5.4
2018-Feb-12 13:29N 50°44' E 007°07'3 5.4
2018-Feb-12 13:00N 50°46' E 007°04'3 5.0
2018-Feb-12 12:22N 50°49' E 007°01'2 5.1
2018-Feb-12 11:59N 50°50' E 006°59'1 1.4
2018-Feb-12 11:30N 50°51' E 006°59'0 0.0
2018-Feb-12 10:59N 50°51' E 006°59'0 0.0
2018-Feb-12 10:28N 50°51' E 006°59'0 0.0
2018-Feb-12 10:00N 50°51' E 006°59'0 0.0
2018-Feb-12 09:26N 50°51' E 006°59'0 0.0
2018-Feb-12 08:58N 50°51' E 006°59'0 0.0
2018-Feb-12 08:27N 50°51' E 006°59'0 0.0
2018-Feb-12 07:56N 50°51' E 006°59'0 0.0
2018-Feb-12 07:30N 50°51' E 006°59'0 0.0
2018-Feb-12 06:59N 50°51' E 006°59'0 0.0
2018-Feb-12 06:15N 50°51' E 006°59'0 0.0
2018-Feb-12 05:59N 50°51' E 006°59'0 0.0
2018-Feb-12 05:28N 50°51' E 006°59'0 0.0
2018-Feb-12 04:59N 50°51' E 006°59'0 0.0
2018-Feb-12 04:12N 50°51' E 006°59'0 0.0
2018-Feb-12 03:42N 50°51' E 006°59'0 0.0
2018-Feb-11 15:37N 50°51' E 006°59'0 0.2
2018-Feb-11 15:30N 50°51' E 006°59'3 6.3
2018-Feb-11 15:00N 50°48' E 007°02'510.0
2018-Feb-11 14:29N 50°44' E 007°07'  
Track history (hours):
 
Tides and Currents Weather Stations Pressure Air Temp Water Temp Dewpoint Dewpoint Depression Visibility Wind Speed Wind Dir Waves Ship Positions

Cavok V

Last reported at 2018-Feb-20 08:55 UTC. Time now 2018-Apr-24 10:25 UTC.
Position N 51°49' E 005°19'.
Warning: this ship's position is months out of date.

Type: Sailing vessel. MMSI: 244690846.

Date/timePositionNaut miles runAvg speedWind from/ knotsBaromVisibWave heightAir tempDewpointWater temp
2018-Feb-20 08:55N 51°49' E 005°19'2 5.1
2018-Feb-20 08:30N 51°49' E 005°16'4 5.4
2018-Feb-20 07:45N 51°49' E 005°09'2 5.8
2018-Feb-20 07:25N 51°49' E 005°06'3 6.1
2018-Feb-20 06:55N 51°49' E 005°01'3 7.2
2018-Feb-20 06:30N 51°50' E 004°57'4 7.8
2018-Feb-20 06:00N 51°49' E 004°50'4 8.1
2018-Feb-20 05:30N 51°49' E 004°44'3 6.2
2018-Feb-20 05:00N 51°51' E 004°40'4 7.9
2018-Feb-20 04:30N 51°54' E 004°35'3 6.7
2018-Feb-20 04:00N 51°55' E 004°30'3 5.3
2018-Feb-20 03:31N 51°53' E 004°26'0 0.8
2018-Feb-20 03:00N 51°53' E 004°27'0 0.0
2018-Feb-20 02:29N 51°53' E 004°27'0 0.0
2018-Feb-20 01:58N 51°53' E 004°27'0 0.0
2018-Feb-20 01:26N 51°53' E 004°27'0 0.0
2018-Feb-20 00:54N 51°53' E 004°27'0 0.0
2018-Feb-20 00:23N 51°53' E 004°27'0 0.0
2018-Feb-19 23:57N 51°53' E 004°27'0 0.0
2018-Feb-19 23:26N 51°53' E 004°27'1 2.6
2018-Feb-19 23:00N 51°54' E 004°26'2 4.9
2018-Feb-19 22:30N 51°54' E 004°22'0 0.0
2018-Feb-19 22:00N 51°54' E 004°22'0 0.2
2018-Feb-19 21:30N 51°54' E 004°22'0 0.1
2018-Feb-19 21:00N 51°54' E 004°22'0 0.0
2018-Feb-19 20:30N 51°54' E 004°22'0 0.0
2018-Feb-19 20:00N 51°54' E 004°22'0 0.0
2018-Feb-19 19:30N 51°54' E 004°22'0 0.1
2018-Feb-19 19:00N 51°54' E 004°22'0 0.0
2018-Feb-19 18:30N 51°54' E 004°22'0 0.0
2018-Feb-19 18:00N 51°54' E 004°22'0 0.1
2018-Feb-19 17:30N 51°54' E 004°22'0 0.0
2018-Feb-19 17:00N 51°54' E 004°22'0 0.0
2018-Feb-19 16:30N 51°54' E 004°22'0 0.4
2018-Feb-19 16:00N 51°54' E 004°22'0 0.0
2018-Feb-19 15:30N 51°54' E 004°22'0 0.0
2018-Feb-19 15:00N 51°54' E 004°22'0 0.0
2018-Feb-19 14:30N 51°54' E 004°22'1 2.8
2018-Feb-19 14:00N 51°54' E 004°24'3 6.3
2018-Feb-19 13:30N 51°54' E 004°29'0 0.2
2018-Feb-19 13:00N 51°54' E 004°29'1 2.8
2018-Feb-19 12:30N 51°54' E 004°31'4 8.7
2018-Feb-19 12:00N 51°53' E 004°38'4 7.9
2018-Feb-19 11:30N 51°49' E 004°39'4 8.6
2018-Feb-19 11:00N 51°44' E 004°38'3 6.0
2018-Feb-19 10:30N 51°43' E 004°42'4 8.2
2018-Feb-19 10:00N 51°43' E 004°49'4 8.4
2018-Feb-19 09:30N 51°43' E 004°56'9 8.2
2018-Feb-19 08:21N 51°45' E 005°11'5 8.1
2018-Feb-19 07:46N 51°44' E 005°18'1 2.6
2018-Feb-19 07:23N 51°44' E 005°20'1 4.0
2018-Feb-19 07:00N 51°43' E 005°21'1 2.3
2018-Feb-19 06:30N 51°42' E 005°22'3 5.7
2018-Feb-19 06:00N 51°40' E 005°24'2 3.2
2018-Feb-19 05:30N 51°39' E 005°27'0 0.3
2018-Feb-19 05:00N 51°39' E 005°27'0 0.0
2018-Feb-19 04:30N 51°39' E 005°27'0 0.0
2018-Feb-19 04:00N 51°39' E 005°27'0 0.0
2018-Feb-19 03:31N 51°39' E 005°27'0 0.0
2018-Feb-19 03:01N 51°39' E 005°27'0 0.0
2018-Feb-19 02:31N 51°39' E 005°27'0 0.0
2018-Feb-19 02:01N 51°39' E 005°27'0 0.0
2018-Feb-19 01:31N 51°39' E 005°27'0 0.0
2018-Feb-19 01:00N 51°39' E 005°27'0 0.0
2018-Feb-19 00:30N 51°39' E 005°27'0 0.0
2018-Feb-19 00:00N 51°39' E 005°27'0 0.0
2018-Feb-18 23:30N 51°39' E 005°27'0 0.0
2018-Feb-18 23:00N 51°39' E 005°27'0 0.0
2018-Feb-18 22:31N 51°39' E 005°27'0 0.0
2018-Feb-18 22:00N 51°39' E 005°27'0 0.0
2018-Feb-18 21:30N 51°39' E 005°27'0 0.0
2018-Feb-18 21:00N 51°39' E 005°27'0 0.0
2018-Feb-18 20:31N 51°39' E 005°27'0 0.0
2018-Feb-18 20:00N 51°39' E 005°27'0 0.0
2018-Feb-18 19:31N 51°39' E 005°27'0 0.0
2018-Feb-18 19:00N 51°39' E 005°27'0 0.0
2018-Feb-18 18:30N 51°39' E 005°27'0 0.0
2018-Feb-18 18:00N 51°39' E 005°27'0 0.0
2018-Feb-18 17:30N 51°39' E 005°27'0 0.0
2018-Feb-18 17:00N 51°39' E 005°27'0 0.0
2018-Feb-18 16:31N 51°39' E 005°27'0 0.0
2018-Feb-18 16:00N 51°39' E 005°27'0 0.0
2018-Feb-18 15:31N 51°39' E 005°27'0 0.0
2018-Feb-18 15:01N 51°39' E 005°27'0 0.0
2018-Feb-18 14:31N 51°39' E 005°27'0 0.0
2018-Feb-18 14:00N 51°39' E 005°27'0 0.0
2018-Feb-18 13:30N 51°39' E 005°27'0 0.0
2018-Feb-18 13:01N 51°39' E 005°27'0 0.0
2018-Feb-18 12:30N 51°39' E 005°27'0 0.0
2018-Feb-18 12:01N 51°39' E 005°27'0 0.0
2018-Feb-18 11:31N 51°39' E 005°27'0 0.0
2018-Feb-18 11:00N 51°39' E 005°27'0 0.0
2018-Feb-18 10:31N 51°39' E 005°27'0 0.0
2018-Feb-18 10:00N 51°39' E 005°27'0 0.0
2018-Feb-18 09:30N 51°39' E 005°27'0 0.0
2018-Feb-18 09:01N 51°39' E 005°27'0 0.0
2018-Feb-18 08:30N 51°39' E 005°27'0 0.0
2018-Feb-18 08:00N 51°39' E 005°27'0 0.0
2018-Feb-18 07:30N 51°39' E 005°27'0 0.0
2018-Feb-18 07:00N 51°39' E 005°27'0 0.0
2018-Feb-18 06:30N 51°39' E 005°27'0 0.0
2018-Feb-18 06:01N 51°39' E 005°27'0 0.0
2018-Feb-18 05:30N 51°39' E 005°27'0 0.0
2018-Feb-18 05:00N 51°39' E 005°27'0 0.0
2018-Feb-18 04:30N 51°39' E 005°27'0 0.0
2018-Feb-18 04:01N 51°39' E 005°27'0 0.0
2018-Feb-18 03:31N 51°39' E 005°27'0 0.0
2018-Feb-18 03:00N 51°39' E 005°27'0 0.0
2018-Feb-18 02:30N 51°39' E 005°27'0 0.0
2018-Feb-18 02:00N 51°39' E 005°27'0 0.0
2018-Feb-18 01:31N 51°39' E 005°27'0 0.0
2018-Feb-18 01:00N 51°39' E 005°27'0 0.0
2018-Feb-18 00:30N 51°39' E 005°27'0 0.0
2018-Feb-18 00:01N 51°39' E 005°27'0 0.0
2018-Feb-17 23:30N 51°39' E 005°27'0 0.0
2018-Feb-17 23:01N 51°39' E 005°27'0 0.0
2018-Feb-17 22:30N 51°39' E 005°27'0 0.0
2018-Feb-17 22:01N 51°39' E 005°27'0 0.0
2018-Feb-17 21:30N 51°39' E 005°27'0 0.0
2018-Feb-17 21:00N 51°39' E 005°27'0 0.0
2018-Feb-17 20:30N 51°39' E 005°27'0 0.0
2018-Feb-17 20:00N 51°39' E 005°27'0 0.0
2018-Feb-17 19:31N 51°39' E 005°27'0 0.0
2018-Feb-17 19:01N 51°39' E 005°27'0 0.0
2018-Feb-17 18:31N 51°39' E 005°27'0 0.0
2018-Feb-17 18:01N 51°39' E 005°27'0 0.0
2018-Feb-17 17:30N 51°39' E 005°27'0 0.0
2018-Feb-17 17:00N 51°39' E 005°27'0 0.0
2018-Feb-17 16:30N 51°39' E 005°27'0 0.0
2018-Feb-17 16:00N 51°39' E 005°27'0 0.0
2018-Feb-17 15:30N 51°39' E 005°27'0 0.0
2018-Feb-17 15:00N 51°39' E 005°27'0 0.0
2018-Feb-17 14:30N 51°39' E 005°27'0 0.0
2018-Feb-17 14:00N 51°39' E 005°27'0 0.0
2018-Feb-17 13:30N 51°39' E 005°27'0 0.0
2018-Feb-17 13:00N 51°39' E 005°27'0 0.0
2018-Feb-17 12:30N 51°39' E 005°27'0 0.0
2018-Feb-17 12:00N 51°39' E 005°27'0 0.0
2018-Feb-17 11:30N 51°39' E 005°27'0 0.0
2018-Feb-17 11:01N 51°39' E 005°27'0 0.0
2018-Feb-17 10:30N 51°39' E 005°27'0 0.0
2018-Feb-17 10:01N 51°39' E 005°27'0 0.0
2018-Feb-17 09:31N 51°39' E 005°27'0 0.0
2018-Feb-17 09:00N 51°39' E 005°27'0 0.0
2018-Feb-17 08:30N 51°39' E 005°27'0 0.0
2018-Feb-17 08:00N 51°39' E 005°27'0 0.0
2018-Feb-17 07:31N 51°39' E 005°27'0 0.0
2018-Feb-17 07:00N 51°39' E 005°27'0 0.0
2018-Feb-17 06:31N 51°39' E 005°27'0 0.0
2018-Feb-17 06:00N 51°39' E 005°27'0 0.0
2018-Feb-17 05:30N 51°39' E 005°27'0 0.0
2018-Feb-17 05:00N 51°39' E 005°27'0 0.0
2018-Feb-17 04:31N 51°39' E 005°27'0 0.0
2018-Feb-17 04:00N 51°39' E 005°27'0 0.0
2018-Feb-17 03:31N 51°39' E 005°27'0 0.0
2018-Feb-17 03:00N 51°39' E 005°27'0 0.0
2018-Feb-17 02:31N 51°39' E 005°27'0 0.0
2018-Feb-17 02:00N 51°39' E 005°27'0 0.0
2018-Feb-17 01:31N 51°39' E 005°27'0 0.0
2018-Feb-17 01:01N 51°39' E 005°27'0 0.0
2018-Feb-17 00:30N 51°39' E 005°27'0 0.0
2018-Feb-17 00:01N 51°39' E 005°27'0 0.0
2018-Feb-16 23:30N 51°39' E 005°27'0 0.0
2018-Feb-16 23:00N 51°39' E 005°27'0 0.0
2018-Feb-16 22:30N 51°39' E 005°27'0 0.0
2018-Feb-16 22:00N 51°39' E 005°27'0 0.0
2018-Feb-16 21:30N 51°39' E 005°27'0 0.0
2018-Feb-16 21:01N 51°39' E 005°27'0 0.0
2018-Feb-16 20:30N 51°39' E 005°27'3 5.7
2018-Feb-16 19:59N 51°37' E 005°31'1 0.0
2018-Feb-15 18:49N 51°37' E 005°32'0 1.2
2018-Feb-15 18:30N 51°37' E 005°31'0 0.8
2018-Feb-15 18:00N 51°37' E 005°31'2 4.4
2018-Feb-15 17:30N 51°39' E 005°28'1 2.0
2018-Feb-15 17:00N 51°39' E 005°27'2 4.4
2018-Feb-15 16:30N 51°40' E 005°24'5 2.3
2018-Feb-15 14:13N 51°45' E 005°20'1 6.0
2018-Feb-15 14:00N 51°46' E 005°22'2 3.9
2018-Feb-15 13:23N 51°48' E 005°21'0 0.8
2018-Feb-15 12:58N 51°48' E 005°21'24 5.2
2018-Feb-15 08:25N 51°52' E 005°59'3 7.8
2018-Feb-15 08:00N 51°52' E 006°04'18 9.3
2018-Feb-15 06:01N 51°41' E 006°28'011.2
2018-Feb-15 06:00N 51°41' E 006°28'5 9.8
2018-Feb-15 05:30N 51°39' E 006°36'510.1
2018-Feb-15 05:00N 51°34' E 006°36'3 6.7
2018-Feb-15 04:30N 51°32' E 006°41'2 3.3
2018-Feb-15 03:58N 51°31' E 006°43'0 0.0
2018-Feb-15 03:29N 51°31' E 006°43'0 0.0
2018-Feb-15 02:53N 51°31' E 006°43'0 0.0
2018-Feb-15 02:29N 51°31' E 006°43'0 0.0
2018-Feb-15 02:00N 51°31' E 006°43'0 0.0
2018-Feb-15 01:27N 51°31' E 006°43'0 0.0
2018-Feb-15 00:53N 51°31' E 006°43'0 0.0
2018-Feb-15 00:30N 51°31' E 006°43'0 0.0
2018-Feb-15 00:00N 51°31' E 006°43'0 0.0
2018-Feb-14 23:30N 51°31' E 006°43'0 0.0
2018-Feb-14 22:58N 51°31' E 006°43'1 2.7
2018-Feb-14 22:30N 51°30' E 006°43'3 6.9
2018-Feb-14 22:00N 51°27' E 006°43'4 8.4
2018-Feb-14 21:29N 51°22' E 006°41'5 7.5
2018-Feb-14 20:50N 51°18' E 006°43'3 8.3
2018-Feb-14 20:30N 51°15' E 006°45'3 6.3
2018-Feb-14 20:00N 51°12' E 006°44'17 7.9
2018-Feb-14 17:52N 50°58' E 006°60'4 9.8
2018-Feb-14 17:30N 50°55' E 006°58'4 6.4
2018-Feb-14 16:53N 50°51' E 006°60'3 8.2
2018-Feb-14 16:29N 50°48' E 007°02'510.6
2018-Feb-14 15:58N 50°44' E 007°07'1 0.0
2018-Feb-12 13:42N 50°43' E 007°07'1 5.4
2018-Feb-12 13:29N 50°44' E 007°07'3 5.4
2018-Feb-12 13:00N 50°46' E 007°04'3 5.0
2018-Feb-12 12:22N 50°49' E 007°01'2 5.1
2018-Feb-12 11:59N 50°50' E 006°59'1 1.4
2018-Feb-12 11:30N 50°51' E 006°59'0 0.0
2018-Feb-12 10:59N 50°51' E 006°59'0 0.0
2018-Feb-12 10:28N 50°51' E 006°59'0 0.0
2018-Feb-12 10:00N 50°51' E 006°59'0 0.0
2018-Feb-12 09:26N 50°51' E 006°59'0 0.0
2018-Feb-12 08:58N 50°51' E 006°59'0 0.0
2018-Feb-12 08:27N 50°51' E 006°59'0 0.0
2018-Feb-12 07:56N 50°51' E 006°59'0 0.0
2018-Feb-12 07:30N 50°51' E 006°59'0 0.0
2018-Feb-12 06:59N 50°51' E 006°59'0 0.0
2018-Feb-12 06:15N 50°51' E 006°59'0 0.0
2018-Feb-12 05:59N 50°51' E 006°59'0 0.0
2018-Feb-12 05:28N 50°51' E 006°59'0 0.0
2018-Feb-12 04:59N 50°51' E 006°59'0 0.0
2018-Feb-12 04:12N 50°51' E 006°59'0 0.0
2018-Feb-12 03:42N 50°51' E 006°59'0 0.0
2018-Feb-11 15:37N 50°51' E 006°59'0 0.2
2018-Feb-11 15:30N 50°51' E 006°59'3 6.3
2018-Feb-11 15:00N 50°48' E 007°02'510.0
2018-Feb-11 14:29N 50°44' E 007°07'  

Dump ship's entire track history